sensor_id;sensor_type;location;lat;lon;timestamp;pressure;altitude;pressure_sealevel;temperature;humidity
55456;BME280;46961;52.836;6.376;2022-07-29T00:01:04;101992.06;;;15.29;60.66
55456;BME280;46961;52.836;6.376;2022-07-29T00:03:29;101998.41;;;15.28;60.54
55456;BME280;46961;52.836;6.376;2022-07-29T00:05:55;101996.75;;;15.27;60.95
55456;BME280;46961;52.836;6.376;2022-07-29T00:08:20;101993.34;;;15.25;60.69
55456;BME280;46961;52.836;6.376;2022-07-29T00:10:46;101992.66;;;15.23;60.64
55456;BME280;46961;52.836;6.376;2022-07-29T00:13:11;101989.28;;;15.21;60.90
55456;BME280;46961;52.836;6.376;2022-07-29T00:15:37;101989.56;;;15.18;60.86
55456;BME280;46961;52.836;6.376;2022-07-29T00:18:02;101989.03;;;15.14;60.97
55456;BME280;46961;52.836;6.376;2022-07-29T00:20:28;101987.34;;;15.13;61.09
55456;BME280;46961;52.836;6.376;2022-07-29T00:22:53;101989.31;;;15.11;61.13
55456;BME280;46961;52.836;6.376;2022-07-29T00:25:18;101982.28;;;15.10;61.25
55456;BME280;46961;52.836;6.376;2022-07-29T00:27:44;101979.75;;;15.09;61.24
55456;BME280;46961;52.836;6.376;2022-07-29T00:30:11;101977.22;;;15.07;61.06
55456;BME280;46961;52.836;6.376;2022-07-29T00:32:40;101972.13;;;15.04;61.55
55456;BME280;46961;52.836;6.376;2022-07-29T00:35:06;101973.97;;;15.03;61.63
55456;BME280;46961;52.836;6.376;2022-07-29T00:37:51;101967.94;;;15.01;61.57
55456;BME280;46961;52.836;6.376;2022-07-29T00:40:16;101959.31;;;14.98;61.67
55456;BME280;46961;52.836;6.376;2022-07-29T00:42:48;101958.66;;;14.96;61.80
55456;BME280;46961;52.836;6.376;2022-07-29T00:45:15;101961.47;;;14.94;61.70
55456;BME280;46961;52.836;6.376;2022-07-29T00:47:41;101953.72;;;14.91;61.83
55456;BME280;46961;52.836;6.376;2022-07-29T00:50:08;101957.41;;;14.90;61.58
55456;BME280;46961;52.836;6.376;2022-07-29T00:52:36;101952.19;;;14.88;62.13
55456;BME280;46961;52.836;6.376;2022-07-29T00:55:06;101947.97;;;14.86;61.76
55456;BME280;46961;52.836;6.376;2022-07-29T00:57:34;101942.91;;;14.83;62.24
55456;BME280;46961;52.836;6.376;2022-07-29T00:59:59;101942.03;;;14.82;62.37
55456;BME280;46961;52.836;6.376;2022-07-29T01:02:25;101935.84;;;14.82;61.88
55456;BME280;46961;52.836;6.376;2022-07-29T01:04:50;101938.66;;;14.80;61.90
55456;BME280;46961;52.836;6.376;2022-07-29T01:07:17;101937.84;;;14.80;61.75
55456;BME280;46961;52.836;6.376;2022-07-29T01:09:43;101931.47;;;14.81;62.23
55456;BME280;46961;52.836;6.376;2022-07-29T01:12:10;101927.13;;;14.80;62.02
55456;BME280;46961;52.836;6.376;2022-07-29T01:14:38;101923.41;;;14.81;61.97
55456;BME280;46961;52.836;6.376;2022-07-29T01:17:17;101926.81;;;14.83;62.52
55456;BME280;46961;52.836;6.376;2022-07-29T01:30:38;101913.84;;;14.78;62.54
55456;BME280;46961;52.836;6.376;2022-07-29T01:33:07;101905.66;;;14.80;63.15
55456;BME280;46961;52.836;6.376;2022-07-29T01:35:40;101903.66;;;14.82;62.26
55456;BME280;46961;52.836;6.376;2022-07-29T01:38:17;101899.16;;;14.82;62.83
55456;BME280;46961;52.836;6.376;2022-07-29T01:40:56;101892.94;;;14.82;62.89
55456;BME280;46961;52.836;6.376;2022-07-29T01:43:33;101895.47;;;14.83;62.72
55456;BME280;46961;52.836;6.376;2022-07-29T01:46:04;101891.81;;;14.84;63.05
55456;BME280;46961;52.836;6.376;2022-07-29T01:48:46;101894.50;;;14.84;62.73
55456;BME280;46961;52.836;6.376;2022-07-29T01:51:32;101879.25;;;14.85;63.01
55456;BME280;46961;52.836;6.376;2022-07-29T01:54:12;101874.03;;;14.83;62.65
55456;BME280;46961;52.836;6.376;2022-07-29T01:56:38;101870.69;;;14.81;63.44
55456;BME280;46961;52.836;6.376;2022-07-29T01:59:07;101868.69;;;14.83;62.73
55456;BME280;46961;52.836;6.376;2022-07-29T02:01:35;101874.88;;;14.84;62.67
55456;BME280;46961;52.836;6.376;2022-07-29T02:04:06;101871.19;;;14.85;62.79
55456;BME280;46961;52.836;6.376;2022-07-29T02:06:34;101862.31;;;14.84;62.95
55456;BME280;46961;52.836;6.376;2022-07-29T02:09:03;101867.84;;;14.83;62.82
55456;BME280;46961;52.836;6.376;2022-07-29T02:11:30;101872.19;;;14.84;62.95
55456;BME280;46961;52.836;6.376;2022-07-29T02:13:57;101868.81;;;14.82;62.97
55456;BME280;46961;52.836;6.376;2022-07-29T02:16:25;101863.47;;;14.82;63.06
55456;BME280;46961;52.836;6.376;2022-07-29T02:18:53;101870.69;;;14.81;63.10
55456;BME280;46961;52.836;6.376;2022-07-29T02:21:21;101859.78;;;14.83;62.52
55456;BME280;46961;52.836;6.376;2022-07-29T02:23:48;101858.94;;;14.82;62.17
55456;BME280;46961;52.836;6.376;2022-07-29T02:26:17;101864.16;;;14.84;62.21
55456;BME280;46961;52.836;6.376;2022-07-29T02:28:43;101855.28;;;14.83;63.08
55456;BME280;46961;52.836;6.376;2022-07-29T02:31:10;101862.19;;;14.86;62.72
55456;BME280;46961;52.836;6.376;2022-07-29T02:33:38;101852.28;;;14.86;62.23
55456;BME280;46961;52.836;6.376;2022-07-29T02:36:05;101841.72;;;14.85;62.12
55456;BME280;46961;52.836;6.376;2022-07-29T02:38:31;101839.88;;;14.85;62.45
55456;BME280;46961;52.836;6.376;2022-07-29T02:41:22;101851.44;;;14.86;61.63
55456;BME280;46961;52.836;6.376;2022-07-29T02:43:52;101854.97;;;14.86;62.08
55456;BME280;46961;52.836;6.376;2022-07-29T02:46:21;101855.81;;;14.87;61.62
55456;BME280;46961;52.836;6.376;2022-07-29T02:48:53;101860.16;;;14.88;61.44
55456;BME280;46961;52.836;6.376;2022-07-29T02:51:27;101851.97;;;14.89;61.78
55456;BME280;46961;52.836;6.376;2022-07-29T02:53:54;101849.28;;;14.89;62.08
55456;BME280;46961;52.836;6.376;2022-07-29T02:56:25;101855.81;;;14.87;61.56
55456;BME280;46961;52.836;6.376;2022-07-29T02:58:58;101848.63;;;14.87;61.82
55456;BME280;46961;52.836;6.376;2022-07-29T03:01:30;101853.00;;;14.88;61.98
55456;BME280;46961;52.836;6.376;2022-07-29T03:04:00;101843.09;;;14.89;61.51
55456;BME280;46961;52.836;6.376;2022-07-29T03:06:28;101850.16;;;14.90;61.06
55456;BME280;46961;52.836;6.376;2022-07-29T03:08:54;101841.41;;;14.88;61.88
55456;BME280;46961;52.836;6.376;2022-07-29T03:11:20;101846.63;;;14.89;61.50
55456;BME280;46961;52.836;6.376;2022-07-29T03:13:46;101847.47;;;14.90;61.36
55456;BME280;46961;52.836;6.376;2022-07-29T03:16:12;101838.56;;;14.89;60.97
55456;BME280;46961;52.836;6.376;2022-07-29T03:18:38;101839.44;;;14.90;61.66
55456;BME280;46961;52.836;6.376;2022-07-29T03:21:04;101837.75;;;14.89;61.26
55456;BME280;46961;52.836;6.376;2022-07-29T03:23:30;101839.75;;;14.87;61.15
55456;BME280;46961;52.836;6.376;2022-07-29T03:25:56;101837.06;;;14.87;61.34
55456;BME280;46961;52.836;6.376;2022-07-29T03:28:21;101839.75;;;14.87;61.48
55456;BME280;46961;52.836;6.376;2022-07-29T03:30:48;101845.09;;;14.87;61.56
55456;BME280;46961;52.836;6.376;2022-07-29T03:33:14;101842.53;;;14.85;61.78
55456;BME280;46961;52.836;6.376;2022-07-29T03:35:39;101847.06;;;14.85;61.63
55456;BME280;46961;52.836;6.376;2022-07-29T03:38:05;101841.72;;;14.85;61.17
55456;BME280;46961;52.836;6.376;2022-07-29T03:40:33;101833.81;;;14.83;61.19
55456;BME280;46961;52.836;6.376;2022-07-29T03:43:02;101842.03;;;14.82;60.77
55456;BME280;46961;52.836;6.376;2022-07-29T03:45:30;101837.63;;;14.81;61.52
55456;BME280;46961;52.836;6.376;2022-07-29T03:48:01;101835.97;;;14.80;61.66
55456;BME280;46961;52.836;6.376;2022-07-29T03:50:28;101834.28;;;14.79;61.71
55456;BME280;46961;52.836;6.376;2022-07-29T03:52:56;101843.31;;;14.78;61.47
55456;BME280;46961;52.836;6.376;2022-07-29T03:55:21;101831.75;;;14.77;61.39
55456;BME280;46961;52.836;6.376;2022-07-29T03:57:49;101835.25;;;14.78;61.28
55456;BME280;46961;52.836;6.376;2022-07-29T04:00:15;101834.59;;;14.76;61.67
55456;BME280;46961;52.836;6.376;2022-07-29T04:02:41;101846.28;;;14.75;61.82
55456;BME280;46961;52.836;6.376;2022-07-29T04:05:13;101835.41;;;14.76;61.63
55456;BME280;46961;52.836;6.376;2022-07-29T04:07:40;101826.69;;;14.74;62.02
55456;BME280;46961;52.836;6.376;2022-07-29T04:10:08;101829.66;;;14.71;61.92
55456;BME280;46961;52.836;6.376;2022-07-29T04:12:34;101837.69;;;14.71;61.84
55456;BME280;46961;52.836;6.376;2022-07-29T04:14:59;101827.13;;;14.69;61.67
55456;BME280;46961;52.836;6.376;2022-07-29T04:17:24;101826.13;;;14.70;61.95
55456;BME280;46961;52.836;6.376;2022-07-29T04:19:50;101832.63;;;14.68;61.65
55456;BME280;46961;52.836;6.376;2022-07-29T04:22:15;101830.09;;;14.66;62.14
55456;BME280;46961;52.836;6.376;2022-07-29T04:24:41;101824.75;;;14.66;61.93
55456;BME280;46961;52.836;6.376;2022-07-29T04:27:06;101826.44;;;14.67;62.49
55456;BME280;46961;52.836;6.376;2022-07-29T04:29:31;101827.44;;;14.66;61.79
55456;BME280;46961;52.836;6.376;2022-07-29T04:31:57;101828.44;;;14.65;61.96
55456;BME280;46961;52.836;6.376;2022-07-29T04:34:22;101827.59;;;14.65;62.33
55456;BME280;46961;52.836;6.376;2022-07-29T04:36:47;101834.78;;;14.64;62.43
55456;BME280;46961;52.836;6.376;2022-07-29T04:39:13;101835.47;;;14.66;61.79
55456;BME280;46961;52.836;6.376;2022-07-29T04:41:39;101831.81;;;14.67;61.89
55456;BME280;46961;52.836;6.376;2022-07-29T04:44:04;101834.50;;;14.67;62.33
55456;BME280;46961;52.836;6.376;2022-07-29T04:46:30;101829.97;;;14.68;62.16
55456;BME280;46961;52.836;6.376;2022-07-29T04:48:56;101826.44;;;14.67;62.43
55456;BME280;46961;52.836;6.376;2022-07-29T04:51:21;101824.59;;;14.68;62.12
55456;BME280;46961;52.836;6.376;2022-07-29T04:53:46;101821.09;;;14.67;62.24
55456;BME280;46961;52.836;6.376;2022-07-29T04:56:12;101825.63;;;14.67;62.18
55456;BME280;46961;52.836;6.376;2022-07-29T04:58:38;101825.63;;;14.67;62.43
55456;BME280;46961;52.836;6.376;2022-07-29T05:01:03;101827.28;;;14.68;62.18
55456;BME280;46961;52.836;6.376;2022-07-29T05:03:29;101826.44;;;14.67;62.42
55456;BME280;46961;52.836;6.376;2022-07-29T05:05:54;101819.25;;;14.68;62.30
55456;BME280;46961;52.836;6.376;2022-07-29T05:08:23;101822.78;;;14.68;62.26
55456;BME280;46961;52.836;6.376;2022-07-29T05:10:48;101820.09;;;14.68;62.39
55456;BME280;46961;52.836;6.376;2022-07-29T05:13:13;101823.75;;;14.67;62.10
55456;BME280;46961;52.836;6.376;2022-07-29T05:15:39;101822.78;;;14.68;62.96
55456;BME280;46961;52.836;6.376;2022-07-29T05:18:04;101829.97;;;14.68;62.92
55456;BME280;46961;52.836;6.376;2022-07-29T05:20:30;101820.09;;;14.68;63.03
55456;BME280;46961;52.836;6.376;2022-07-29T05:22:57;101824.44;;;14.69;62.88
55456;BME280;46961;52.836;6.376;2022-07-29T05:25:24;101829.66;;;14.71;62.79
55456;BME280;46961;52.836;6.376;2022-07-29T05:27:51;101827.13;;;14.69;62.45
55456;BME280;46961;52.836;6.376;2022-07-29T05:30:16;101837.69;;;14.71;62.10
55456;BME280;46961;52.836;6.376;2022-07-29T05:32:44;101837.69;;;14.71;62.80
55456;BME280;46961;52.836;6.376;2022-07-29T05:35:11;101840.25;;;14.72;62.54
55456;BME280;46961;52.836;6.376;2022-07-29T05:37:36;101839.38;;;14.72;62.92
55456;BME280;46961;52.836;6.376;2022-07-29T05:40:03;101841.91;;;14.73;62.71
55456;BME280;46961;52.836;6.376;2022-07-29T05:42:29;101838.25;;;14.75;63.38
55456;BME280;46961;52.836;6.376;2022-07-29T05:44:54;101837.28;;;14.76;62.74
55456;BME280;46961;52.836;6.376;2022-07-29T05:47:20;101832.59;;;14.78;62.49
55456;BME280;46961;52.836;6.376;2022-07-29T05:49:46;101839.50;;;14.80;62.93
55456;BME280;46961;52.836;6.376;2022-07-29T05:52:11;101842.53;;;14.85;63.30
55456;BME280;46961;52.836;6.376;2022-07-29T05:54:38;101850.16;;;14.90;63.26
55456;BME280;46961;52.836;6.376;2022-07-29T05:57:04;101853.91;;;14.97;63.10
55456;BME280;46961;52.836;6.376;2022-07-29T05:59:30;101850.63;;;15.03;63.08
55456;BME280;46961;52.836;6.376;2022-07-29T06:01:56;101850.88;;;15.10;63.65
55456;BME280;46961;52.836;6.376;2022-07-29T06:04:22;101850.94;;;15.18;63.39
55456;BME280;46961;52.836;6.376;2022-07-29T06:06:47;101851.34;;;15.23;63.12
55456;BME280;46961;52.836;6.376;2022-07-29T06:09:13;101850.72;;;15.30;62.79
55456;BME280;46961;52.836;6.376;2022-07-29T06:11:39;101854.78;;;15.34;62.57
55456;BME280;46961;52.836;6.376;2022-07-29T06:14:04;101846.25;;;15.38;62.42
55456;BME280;46961;52.836;6.376;2022-07-29T06:16:29;101856.72;;;15.41;63.03
55456;BME280;46961;52.836;6.376;2022-07-29T06:18:55;101846.81;;;15.42;62.41
55456;BME280;46961;52.836;6.376;2022-07-29T06:21:20;101845.81;;;15.43;62.53
55456;BME280;46961;52.836;6.376;2022-07-29T06:23:46;101847.31;;;15.46;62.14
55456;BME280;46961;52.836;6.376;2022-07-29T06:26:11;101849.72;;;15.49;62.11
55456;BME280;46961;52.836;6.376;2022-07-29T06:28:36;101850.25;;;15.52;62.55
55456;BME280;46961;52.836;6.376;2022-07-29T06:31:02;101844.56;;;15.55;62.39
55456;BME280;46961;52.836;6.376;2022-07-29T06:33:27;101848.63;;;15.59;62.52
55456;BME280;46961;52.836;6.376;2022-07-29T06:35:53;101847.47;;;15.62;62.25
55456;BME280;46961;52.836;6.376;2022-07-29T06:38:18;101847.47;;;15.62;61.99
55456;BME280;46961;52.836;6.376;2022-07-29T06:40:45;101840.97;;;15.65;61.89
55456;BME280;46961;52.836;6.376;2022-07-29T06:43:30;101846.31;;;15.65;61.90
55456;BME280;46961;52.836;6.376;2022-07-29T06:46:02;101842.63;;;15.66;61.52
55456;BME280;46961;52.836;6.376;2022-07-29T06:48:28;101845.31;;;15.66;61.82
55456;BME280;46961;52.836;6.376;2022-07-29T06:50:54;101845.16;;;15.67;61.55
55456;BME280;46961;52.836;6.376;2022-07-29T06:53:19;101850.38;;;15.69;61.98
55456;BME280;46961;52.836;6.376;2022-07-29T06:55:45;101854.41;;;15.73;62.16
55456;BME280;46961;52.836;6.376;2022-07-29T06:58:10;101850.59;;;15.75;62.15
55456;BME280;46961;52.836;6.376;2022-07-29T07:00:36;101849.31;;;15.80;61.84
55456;BME280;46961;52.836;6.376;2022-07-29T07:03:02;101858.91;;;15.82;62.21
55456;BME280;46961;52.836;6.376;2022-07-29T07:05:27;101861.44;;;15.84;61.69
55456;BME280;46961;52.836;6.376;2022-07-29T07:07:53;101866.78;;;15.84;61.69
55456;BME280;46961;52.836;6.376;2022-07-29T07:10:18;101861.28;;;15.85;61.56
55456;BME280;46961;52.836;6.376;2022-07-29T07:12:43;101872.84;;;15.86;61.91
55456;BME280;46961;52.836;6.376;2022-07-29T07:15:09;101877.91;;;15.89;61.53
55456;BME280;46961;52.836;6.376;2022-07-29T07:17:35;101884.97;;;15.90;61.25
55456;BME280;46961;52.836;6.376;2022-07-29T07:20:00;101883.97;;;15.91;61.43
55456;BME280;46961;52.836;6.376;2022-07-29T07:22:25;101890.00;;;15.93;61.52
55456;BME280;46961;52.836;6.376;2022-07-29T07:24:51;101889.84;;;15.94;61.57
55456;BME280;46961;52.836;6.376;2022-07-29T07:27:16;101894.06;;;15.97;61.24
55456;BME280;46961;52.836;6.376;2022-07-29T07:29:41;101884.03;;;15.99;61.75
55456;BME280;46961;52.836;6.376;2022-07-29T07:32:10;101877.34;;;16.03;61.89
55456;BME280;46961;52.836;6.376;2022-07-29T07:34:35;101871.97;;;16.03;62.05
55456;BME280;46961;52.836;6.376;2022-07-29T07:37:02;101882.09;;;16.09;61.57
55456;BME280;46961;52.836;6.376;2022-07-29T07:39:28;101877.53;;;16.10;61.35
55456;BME280;46961;52.836;6.376;2022-07-29T07:41:53;101865.66;;;16.13;61.14
55456;BME280;46961;52.836;6.376;2022-07-29T07:44:19;101860.09;;;16.14;61.30
55456;BME280;46961;52.836;6.376;2022-07-29T07:46:44;101859.94;;;16.16;61.25
55456;BME280;46961;52.836;6.376;2022-07-29T07:49:10;101858.13;;;16.16;60.87
55456;BME280;46961;52.836;6.376;2022-07-29T07:51:36;101862.63;;;16.16;60.75
55456;BME280;46961;52.836;6.376;2022-07-29T07:54:01;101863.34;;;16.18;60.97
55456;BME280;46961;52.836;6.376;2022-07-29T07:56:27;101860.81;;;16.16;61.00
55456;BME280;46961;52.836;6.376;2022-07-29T07:58:52;101860.81;;;16.16;61.46
55456;BME280;46961;52.836;6.376;2022-07-29T08:01:18;101862.47;;;16.17;61.36
55456;BME280;46961;52.836;6.376;2022-07-29T08:03:46;101863.34;;;16.18;61.16
55456;BME280;46961;52.836;6.376;2022-07-29T08:06:12;101860.31;;;16.21;61.51
55456;BME280;46961;52.836;6.376;2022-07-29T08:08:40;101869.75;;;16.25;62.13
55456;BME280;46961;52.836;6.376;2022-07-29T08:11:06;101867.91;;;16.25;62.16
55456;BME280;46961;52.836;6.376;2022-07-29T08:13:31;101864.88;;;16.28;61.84
55456;BME280;46961;52.836;6.376;2022-07-29T08:15:57;101868.28;;;16.31;61.91
55456;BME280;46961;52.836;6.376;2022-07-29T08:18:29;101865.09;;;16.35;61.71
55456;BME280;46961;52.836;6.376;2022-07-29T08:20:55;101857.53;;;16.39;62.12
55456;BME280;46961;52.836;6.376;2022-07-29T08:23:21;101858.75;;;16.44;62.27
55456;BME280;46961;52.836;6.376;2022-07-29T08:25:48;101860.81;;;16.51;62.20
55456;BME280;46961;52.836;6.376;2022-07-29T08:28:14;101859.00;;;16.59;62.14
55456;BME280;46961;52.836;6.376;2022-07-29T08:30:39;101862.03;;;16.65;62.99
55456;BME280;46961;52.836;6.376;2022-07-29T08:33:05;101857.84;;;16.70;62.37
55456;BME280;46961;52.836;6.376;2022-07-29T08:35:31;101844.78;;;16.75;62.41
55456;BME280;46961;52.836;6.376;2022-07-29T08:37:56;101848.81;;;16.79;62.71
55456;BME280;46961;52.836;6.376;2022-07-29T08:40:22;101846.63;;;16.83;62.33
55456;BME280;46961;52.836;6.376;2022-07-29T08:42:49;101841.09;;;16.85;62.13
55456;BME280;46961;52.836;6.376;2022-07-29T08:45:15;101842.31;;;16.90;62.56
55456;BME280;46961;52.836;6.376;2022-07-29T08:47:40;101832.25;;;16.92;62.12
55456;BME280;46961;52.836;6.376;2022-07-29T08:50:08;101832.75;;;16.96;61.75
55456;BME280;46961;52.836;6.376;2022-07-29T08:52:36;101831.75;;;16.97;61.62
55456;BME280;46961;52.836;6.376;2022-07-29T08:55:07;101839.66;;;16.99;61.34
55456;BME280;46961;52.836;6.376;2022-07-29T08:57:34;101839.31;;;17.02;61.66
55456;BME280;46961;52.836;6.376;2022-07-29T09:00:00;101844.34;;;17.05;61.70
55456;BME280;46961;52.836;6.376;2022-07-29T09:02:28;101839.34;;;17.10;61.79
55456;BME280;46961;52.836;6.376;2022-07-29T09:04:54;101833.28;;;17.16;61.77
55456;BME280;46961;52.836;6.376;2022-07-29T09:07:19;101829.91;;;17.22;62.18
55456;BME280;46961;52.836;6.376;2022-07-29T09:09:45;101821.69;;;17.32;62.10
55456;BME280;46961;52.836;6.376;2022-07-29T09:12:11;101830.78;;;17.39;61.71
55456;BME280;46961;52.836;6.376;2022-07-29T09:14:40;101835.66;;;17.44;61.31
55456;BME280;46961;52.836;6.376;2022-07-29T09:17:06;101836.81;;;17.49;61.50
55456;BME280;46961;52.836;6.376;2022-07-29T09:19:33;101829.09;;;17.55;62.39
55456;BME280;46961;52.836;6.376;2022-07-29T09:22:04;101826.06;;;17.66;62.05
55456;BME280;46961;52.836;6.376;2022-07-29T09:24:40;101827.72;;;17.75;61.86
55456;BME280;46961;52.836;6.376;2022-07-29T09:27:12;101833.09;;;17.83;61.47
55456;BME280;46961;52.836;6.376;2022-07-29T09:29:43;101830.44;;;17.92;61.30
55456;BME280;46961;52.836;6.376;2022-07-29T09:32:09;101828.56;;;18.00;61.14
55456;BME280;46961;52.836;6.376;2022-07-29T09:34:35;101831.06;;;18.10;61.57
55456;BME280;46961;52.836;6.376;2022-07-29T09:37:00;101832.53;;;18.21;61.21
55456;BME280;46961;52.836;6.376;2022-07-29T09:39:28;101835.03;;;18.31;61.10
55456;BME280;46961;52.836;6.376;2022-07-29T09:41:55;101836.50;;;18.42;60.74
55456;BME280;46961;52.836;6.376;2022-07-29T09:44:22;101837.97;;;18.52;60.76
55456;BME280;46961;52.836;6.376;2022-07-29T09:46:58;101838.78;;;18.61;59.63
55456;BME280;46961;52.836;6.376;2022-07-29T09:49:24;101835.72;;;18.64;59.12
55456;BME280;46961;52.836;6.376;2022-07-29T09:52:09;101833.81;;;18.73;58.62
55456;BME280;46961;52.836;6.376;2022-07-29T09:54:36;101833.66;;;18.75;57.51
55456;BME280;46961;52.836;6.376;2022-07-29T09:57:06;101836.00;;;18.78;57.64
55456;BME280;46961;52.836;6.376;2022-07-29T09:59:33;101841.69;;;18.83;57.74
55456;BME280;46961;52.836;6.376;2022-07-29T10:01:59;101839.53;;;18.86;57.94
55456;BME280;46961;52.836;6.376;2022-07-29T10:04:36;101843.19;;;18.94;57.63
55456;BME280;46961;52.836;6.376;2022-07-29T10:07:03;101858.50;;;19.01;57.00
55456;BME280;46961;52.836;6.376;2022-07-29T10:09:30;101858.63;;;19.08;57.56
55456;BME280;46961;52.836;6.376;2022-07-29T10:12:08;101858.72;;;19.15;57.26
55456;BME280;46961;52.836;6.376;2022-07-29T10:14:34;101853.84;;;19.18;57.00
55456;BME280;46961;52.836;6.376;2022-07-29T10:17:01;101847.06;;;19.23;56.83
55456;BME280;46961;52.836;6.376;2022-07-29T10:19:31;101854.44;;;19.29;55.85
55456;BME280;46961;52.836;6.376;2022-07-29T10:21:58;101854.06;;;19.32;56.44
55456;BME280;46961;52.836;6.376;2022-07-29T10:24:29;101855.03;;;19.39;55.92
55456;BME280;46961;52.836;6.376;2022-07-29T10:26:56;101848.91;;;19.45;56.16
55456;BME280;46961;52.836;6.376;2022-07-29T10:29:22;101849.31;;;19.57;56.98
55456;BME280;46961;52.836;6.376;2022-07-29T10:42:55;101850.81;;;19.98;54.98
55456;BME280;46961;52.836;6.376;2022-07-29T10:45:26;101844.03;;;20.02;55.13
55456;BME280;46961;52.836;6.376;2022-07-29T10:48:03;101849.53;;;20.08;54.66
55456;BME280;46961;52.836;6.376;2022-07-29T10:50:53;101833.19;;;20.17;54.84
55456;BME280;46961;52.836;6.376;2022-07-29T10:53:23;101836.84;;;20.24;55.22
55456;BME280;46961;52.836;6.376;2022-07-29T10:55:51;101839.25;;;20.34;54.28
55456;BME280;46961;52.836;6.376;2022-07-29T10:58:22;101834.59;;;20.42;53.84
55456;BME280;46961;52.836;6.376;2022-07-29T11:00:53;101836.56;;;20.49;53.99
55456;BME280;46961;52.836;6.376;2022-07-29T11:06:06;101833.38;;;20.45;52.55
55456;BME280;46961;52.836;6.376;2022-07-29T11:08:32;101831.31;;;20.47;53.31
55456;BME280;46961;52.836;6.376;2022-07-29T11:16:15;101828.41;;;20.64;52.75
55456;BME280;46961;52.836;6.376;2022-07-29T11:19:33;101826.25;;;20.74;53.55
55456;BME280;46961;52.836;6.376;2022-07-29T11:21:52;101834.66;;;20.79;53.18
55456;BME280;46961;52.836;6.376;2022-07-29T11:24:28;101827.88;;;20.90;53.52
55456;BME280;46961;52.836;6.376;2022-07-29T11:27:16;101821.72;;;20.96;53.43
55456;BME280;46961;52.836;6.376;2022-07-29T11:29:56;101820.75;;;21.04;53.44
55456;BME280;46961;52.836;6.376;2022-07-29T11:32:24;101831.00;;;21.08;52.96
55456;BME280;46961;52.836;6.376;2022-07-29T11:37:40;101834.88;;;21.21;52.55
55456;BME280;46961;52.836;6.376;2022-07-29T11:47:28;101829.78;;;21.33;52.05
55456;BME280;46961;52.836;6.376;2022-07-29T11:49:56;101825.25;;;21.40;51.74
55456;BME280;46961;52.836;6.376;2022-07-29T11:52:22;101828.84;;;21.47;52.03
55456;BME280;46961;52.836;6.376;2022-07-29T11:54:49;101818.56;;;21.57;52.37
55456;BME280;46961;52.836;6.376;2022-07-29T11:57:19;101818.84;;;21.69;51.65
55456;BME280;46961;52.836;6.376;2022-07-29T11:59:46;101813.06;;;21.79;51.32
55456;BME280;46961;52.836;6.376;2022-07-29T12:02:13;101815.84;;;21.86;51.45
55456;BME280;46961;52.836;6.376;2022-07-29T12:07:17;101810.75;;;22.04;51.67
55456;BME280;46961;52.836;6.376;2022-07-29T12:09:50;101799.56;;;22.21;52.40
55456;BME280;46961;52.836;6.376;2022-07-29T12:12:17;101803.00;;;22.36;51.84
55456;BME280;46961;52.836;6.376;2022-07-29T12:14:42;101797.03;;;22.54;52.33
55456;BME280;46961;52.836;6.376;2022-07-29T12:19:53;101790.44;;;22.90;51.13
55456;BME280;46961;52.836;6.376;2022-07-29T12:22:30;101804.66;;;23.06;49.17
55456;BME280;46961;52.836;6.376;2022-07-29T12:25:01;101804.72;;;23.19;48.76
55456;BME280;46961;52.836;6.376;2022-07-29T12:27:27;101801.59;;;23.29;48.29
55456;BME280;46961;52.836;6.376;2022-07-29T12:30:03;101804.91;;;23.44;48.47
55456;BME280;46961;52.836;6.376;2022-07-29T12:32:41;101800.31;;;23.58;47.56
55456;BME280;46961;52.836;6.376;2022-07-29T12:35:08;101801.53;;;23.69;47.27
55456;BME280;46961;52.836;6.376;2022-07-29T12:37:35;101801.34;;;23.70;46.29
55456;BME280;46961;52.836;6.376;2022-07-29T12:40:06;101800.50;;;23.70;46.13
55456;BME280;46961;52.836;6.376;2022-07-29T12:42:35;101802.78;;;23.73;47.50
55456;BME280;46961;52.836;6.376;2022-07-29T12:45:01;101803.63;;;23.80;47.81
55456;BME280;46961;52.836;6.376;2022-07-29T12:47:27;101798.81;;;23.82;47.04
55456;BME280;46961;52.836;6.376;2022-07-29T12:50:14;101798.38;;;23.85;47.72
55456;BME280;46961;52.836;6.376;2022-07-29T12:52:44;101801.75;;;23.87;47.67
55456;BME280;46961;52.836;6.376;2022-07-29T12:55:10;101802.59;;;23.88;47.44
55456;BME280;46961;52.836;6.376;2022-07-29T12:57:49;101802.59;;;23.88;46.74
55456;BME280;46961;52.836;6.376;2022-07-29T13:00:22;101797.78;;;23.83;46.39
55456;BME280;46961;52.836;6.376;2022-07-29T13:02:55;101801.53;;;23.82;45.72
55456;BME280;46961;52.836;6.376;2022-07-29T13:05:20;101801.31;;;23.77;46.41
55456;BME280;46961;52.836;6.376;2022-07-29T13:07:46;101797.34;;;23.73;46.24
55456;BME280;46961;52.836;6.376;2022-07-29T13:10:14;101791.91;;;23.73;46.34
55456;BME280;46961;52.836;6.376;2022-07-29T13:13:07;101793.38;;;23.82;46.80
55456;BME280;46961;52.836;6.376;2022-07-29T13:15:35;101792.75;;;23.87;47.00
55456;BME280;46961;52.836;6.376;2022-07-29T13:18:00;101790.03;;;23.94;47.14
55456;BME280;46961;52.836;6.376;2022-07-29T13:20:27;101782.44;;;24.09;47.18
55456;BME280;46961;52.836;6.376;2022-07-29T13:23:00;101782.81;;;24.26;45.96
55456;BME280;46961;52.836;6.376;2022-07-29T13:25:30;101788.63;;;24.36;45.06
55456;BME280;46961;52.836;6.376;2022-07-29T13:27:57;101784.63;;;24.39;44.71
55456;BME280;46961;52.836;6.376;2022-07-29T13:30:23;101785.44;;;24.46;45.25
55456;BME280;46961;52.836;6.376;2022-07-29T13:32:51;101788.75;;;24.62;45.03
55456;BME280;46961;52.836;6.376;2022-07-29T13:35:16;101776.28;;;24.79;44.63
55456;BME280;46961;52.836;6.376;2022-07-29T13:37:42;101782.44;;;25.00;44.73
55456;BME280;46961;52.836;6.376;2022-07-29T13:40:09;101776.22;;;25.18;43.99